Time;durP1;ratioP1;P1;durP2;ratioP2;P2;SDS_P1;SDS_P2;PMS_P1;PMS_P2;Temp;Humidity;BMP_temperature;BMP_pressure;BME280_temperature;BME280_humidity;BME280_pressure;Samples;Min_cycle;Max_cycle;Signal;HPM_P1;HPM_P2
2022/07/22 00:00:40;;;;;;;4.97;4.47;;;15.40;95.20;;;;;;4140754;28;20682;-86
2022/07/22 00:02:40;;;;;;;5.53;4.97;;;15.40;95.50;;;;;;4139594;28;20217;-85
2022/07/22 00:04:41;;;;;;;5.33;4.40;;;15.40;95.40;;;;;;4137996;28;20245;-87
2022/07/22 00:06:42;;;;;;;6.63;5.00;;;15.40;95.50;;;;;;4138739;28;20180;-86
2022/07/22 00:08:42;;;;;;;5.83;4.60;;;15.40;95.60;;;;;;4138534;28;20233;-86
2022/07/22 00:10:43;;;;;;;5.50;4.57;;;15.40;94.90;;;;;;4139757;28;20250;-87
2022/07/22 00:12:43;;;;;;;6.03;4.67;;;15.40;94.60;;;;;;4139961;28;20209;-86
2022/07/22 00:14:44;;;;;;;5.63;4.77;;;15.30;94.90;;;;;;4137182;28;20202;-86
2022/07/22 00:16:44;;;;;;;5.50;4.93;;;15.20;95.80;;;;;;4138157;28;20209;-86
2022/07/22 00:18:45;;;;;;;8.17;5.50;;;15.20;96.30;;;;;;4138694;28;20306;-86
2022/07/22 00:20:46;;;;;;;7.93;5.30;;;15.20;96.60;;;;;;4137442;28;20223;-87
2022/07/22 00:22:46;;;;;;;5.17;4.67;;;15.20;96.60;;;;;;4137372;28;20233;-86
2022/07/22 00:24:47;;;;;;;6.83;5.40;;;15.20;97.20;;;;;;4136164;28;20292;-86
2022/07/22 00:26:47;;;;;;;6.70;6.00;;;15.20;96.50;;;;;;4137267;28;20214;-85
2022/07/22 00:28:48;;;;;;;5.53;4.83;;;15.10;96.20;;;;;;4137735;28;20184;-86
2022/07/22 00:30:49;;;;;;;6.10;4.80;;;15.10;96.00;;;;;;4136361;28;20178;-86
2022/07/22 00:32:49;;;;;;;6.83;4.67;;;15.10;96.60;;;;;;4137574;28;20210;-85
2022/07/22 00:34:50;;;;;;;6.20;4.60;;;15.00;97.30;;;;;;4135022;28;20210;-86
2022/07/22 00:36:50;;;;;;;5.97;5.07;;;15.00;97.40;;;;;;4137161;28;20179;-84
2022/07/22 00:38:51;;;;;;;7.03;4.87;;;14.90;98.20;;;;;;4135346;28;20218;-86
2022/07/22 00:40:52;;;;;;;5.70;4.77;;;14.90;98.40;;;;;;4135609;28;20260;-85
2022/07/22 00:42:52;;;;;;;7.70;5.23;;;14.90;97.70;;;;;;4136893;28;20603;-85
2022/07/22 00:44:53;;;;;;;5.57;5.00;;;14.90;97.80;;;;;;4137333;28;20657;-86
2022/07/22 00:46:54;;;;;;;6.80;5.00;;;14.90;98.10;;;;;;4136869;28;20190;-85
2022/07/22 00:48:55;;;;;;;5.77;5.17;;;14.90;98.60;;;;;;4135264;28;20649;-85
2022/07/22 00:50:55;;;;;;;7.10;4.90;;;14.80;98.30;;;;;;4134870;28;20182;-85
2022/07/22 00:52:56;;;;;;;6.73;5.50;;;14.80;99.60;;;;;;4134930;28;20197;-86
2022/07/22 00:54:58;;;;;;;7.63;6.80;;;14.80;99.30;;;;;;4133757;28;20210;-85
2022/07/22 00:56:59;;;;;;;5.70;5.20;;;14.80;99.70;;;;;;4135077;28;20246;-84
2022/07/22 00:59:04;;;;;;;5.60;4.63;;;14.80;99.30;;;;;;4135391;28;20663;-85
2022/07/22 01:01:04;;;;;;;6.80;4.77;;;14.70;98.80;;;;;;4137299;28;20233;-84
2022/07/22 01:03:05;;;;;;;5.93;5.03;;;14.60;99.30;;;;;;4135271;28;20178;-84
2022/07/22 01:05:06;;;;;;;6.27;5.10;;;14.60;99.90;;;;;;4118314;28;20203;-85
2022/07/22 01:07:07;;;;;;;9.83;5.37;;;14.60;99.70;;;;;;4135286;28;20185;-85
2022/07/22 01:09:07;;;;;;;6.47;4.97;;;14.60;99.90;;;;;;4136931;28;20174;-85
2022/07/22 01:11:10;;;;;;;6.40;5.43;;;14.60;99.90;;;;;;4135675;28;20671;-85
2022/07/22 01:13:10;;;;;;;5.63;5.03;;;14.50;99.90;;;;;;4144760;28;20188;-85
2022/07/22 01:15:11;;;;;;;5.93;5.17;;;14.50;99.90;;;;;;4138163;28;20573;-84
2022/07/22 01:17:11;;;;;;;6.63;5.40;;;14.50;99.90;;;;;;4137883;28;20183;-84
2022/07/22 01:19:12;;;;;;;5.87;5.03;;;14.50;99.90;;;;;;4135169;28;20329;-84
2022/07/22 01:21:14;;;;;;;6.30;4.57;;;14.40;99.90;;;;;;4136169;28;20210;-85
2022/07/22 01:23:14;;;;;;;7.30;4.93;;;14.40;99.90;;;;;;4136374;28;20277;-85
2022/07/22 01:25:15;;;;;;;6.90;5.43;;;14.40;99.90;;;;;;4134980;28;20614;-85
2022/07/22 01:27:16;;;;;;;6.80;5.03;;;14.40;99.90;;;;;;4135333;28;20736;-84
2022/07/22 01:29:16;;;;;;;6.27;4.57;;;14.30;99.90;;;;;;4134942;28;20672;-84
2022/07/22 01:31:17;;;;;;;7.60;5.20;;;14.30;99.90;;;;;;4136361;28;20183;-85
2022/07/22 01:33:20;;;;;;;6.57;4.90;;;14.30;99.90;;;;;;4133747;28;20245;-84
2022/07/22 01:35:21;;;;;;;6.57;5.03;;;14.30;99.90;;;;;;4134729;28;20221;-85
2022/07/22 01:37:21;;;;;;;6.63;5.07;;;14.30;99.90;;;;;;4133232;28;20249;-83
2022/07/22 01:39:22;;;;;;;7.17;5.00;;;14.30;99.90;;;;;;4134726;28;20182;-84
2022/07/22 01:41:22;;;;;;;6.63;5.37;;;14.30;99.90;;;;;;4132978;28;20234;-84
2022/07/22 01:43:23;;;;;;;8.10;5.30;;;14.20;99.90;;;;;;4134109;28;20591;-84
2022/07/22 01:45:24;;;;;;;7.60;5.47;;;14.20;99.90;;;;;;4132150;28;20230;-84
2022/07/22 01:47:24;;;;;;;6.07;5.17;;;14.20;99.90;;;;;;4133967;28;20241;-84
2022/07/22 01:49:25;;;;;;;8.00;5.77;;;14.20;99.90;;;;;;4132583;28;20202;-84
2022/07/22 01:51:25;;;;;;;5.93;5.10;;;14.10;99.90;;;;;;4142134;28;20194;-81
2022/07/22 01:53:26;;;;;;;8.67;5.50;;;14.20;99.90;;;;;;4148516;28;20182;-84
2022/07/22 01:55:27;;;;;;;6.80;5.10;;;14.10;99.90;;;;;;4135656;28;20665;-84
2022/07/22 01:57:27;;;;;;;6.73;5.47;;;14.10;99.90;;;;;;4135356;28;20186;-84
2022/07/22 01:59:28;;;;;;;7.40;5.63;;;14.10;99.90;;;;;;4134709;28;20178;-83
2022/07/22 02:01:29;;;;;;;7.17;5.50;;;14.10;99.90;;;;;;4133444;28;20213;-83
2022/07/22 02:03:29;;;;;;;7.00;4.73;;;14.10;99.90;;;;;;4135359;28;20871;-83
2022/07/22 02:05:30;;;;;;;7.30;5.80;;;14.10;99.90;;;;;;4132443;28;20237;-83
2022/07/22 02:07:31;;;;;;;10.27;5.60;;;14.10;99.90;;;;;;4134750;28;20197;-82
2022/07/22 02:09:31;;;;;;;9.67;5.20;;;14.10;99.90;;;;;;4134096;28;20186;-83
2022/07/22 02:11:32;;;;;;;5.90;5.10;;;14.10;99.90;;;;;;4132297;28;20208;-83
2022/07/22 02:13:32;;;;;;;5.70;5.07;;;14.10;99.90;;;;;;4132453;28;20632;-81
2022/07/22 02:15:33;;;;;;;6.93;5.50;;;14.10;99.90;;;;;;4132230;28;20237;-83
2022/07/22 02:17:35;;;;;;;6.50;5.23;;;14.10;99.90;;;;;;4133114;28;20186;-83
2022/07/22 02:19:35;;;;;;;6.07;5.13;;;14.00;99.90;;;;;;4133689;28;20242;-82
2022/07/22 02:21:37;;;;;;;6.77;5.83;;;14.00;99.90;;;;;;4132721;28;20205;-80
2022/07/22 02:23:37;;;;;;;6.63;5.50;;;14.00;99.90;;;;;;4134663;28;20277;-80
2022/07/22 02:25:39;;;;;;;6.63;5.40;;;14.00;99.90;;;;;;4128526;28;20234;-79
2022/07/22 02:27:41;;;;;;;7.90;5.73;;;13.90;99.90;;;;;;4131180;28;20182;-80
2022/07/22 02:29:42;;;;;;;8.20;6.03;;;13.90;99.90;;;;;;4132123;28;20277;-82
2022/07/22 02:31:43;;;;;;;7.10;5.97;;;13.90;99.90;;;;;;4133061;28;20658;-81
2022/07/22 02:33:44;;;;;;;7.60;5.67;;;13.90;99.90;;;;;;4130928;28;20210;-80
2022/07/22 02:35:45;;;;;;;7.03;5.37;;;13.90;99.90;;;;;;4131056;28;20202;-80
2022/07/22 02:37:46;;;;;;;7.23;5.57;;;13.80;99.90;;;;;;4132386;28;20187;-80
2022/07/22 02:39:46;;;;;;;8.43;6.17;;;13.80;99.90;;;;;;4133796;28;20190;-80
2022/07/22 02:41:47;;;;;;;7.80;5.83;;;13.80;99.90;;;;;;4134792;28;20614;-79
2022/07/22 02:43:47;;;;;;;6.57;5.50;;;13.80;99.90;;;;;;4134168;28;20175;-80
2022/07/22 02:45:48;;;;;;;8.07;5.60;;;13.80;99.90;;;;;;4136247;28;20191;-80
2022/07/22 02:47:51;;;;;;;6.00;5.40;;;13.80;99.90;;;;;;4135882;28;20170;-80
2022/07/22 02:49:52;;;;;;;7.63;5.77;;;13.70;99.90;;;;;;4134725;28;20182;-80
2022/07/22 02:51:52;;;;;;;7.00;5.70;;;13.70;99.90;;;;;;4133944;28;20218;-81
2022/07/22 02:53:53;;;;;;;7.13;5.73;;;13.70;99.90;;;;;;4134819;28;20182;-81
2022/07/22 02:55:53;;;;;;;7.03;5.77;;;13.70;99.90;;;;;;4135308;28;20171;-80
2022/07/22 02:57:54;;;;;;;7.13;5.90;;;13.70;99.90;;;;;;4133523;28;20174;-81
2022/07/22 02:59:54;;;;;;;8.43;5.67;;;13.70;99.90;;;;;;4135683;28;20202;-81
2022/07/22 03:01:55;;;;;;;6.73;5.90;;;13.60;99.90;;;;;;4135471;28;20302;-79
2022/07/22 03:03:56;;;;;;;8.13;6.20;;;13.60;99.90;;;;;;4134395;28;20555;-81
2022/07/22 03:05:57;;;;;;;7.63;5.90;;;13.60;99.90;;;;;;4133652;28;20273;-80
2022/07/22 03:07:57;;;;;;;6.37;5.50;;;13.60;99.90;;;;;;4133454;28;20182;-80
2022/07/22 03:09:58;;;;;;;6.37;5.20;;;13.70;99.90;;;;;;4133058;28;20194;-80
2022/07/22 03:11:59;;;;;;;6.17;5.57;;;13.70;99.90;;;;;;4134775;28;20170;-80
2022/07/22 03:13:59;;;;;;;7.27;5.73;;;13.60;99.90;;;;;;4132594;28;20246;-80
2022/07/22 03:16:00;;;;;;;10.07;6.33;;;13.60;99.90;;;;;;4134475;28;20178;-79
2022/07/22 03:18:01;;;;;;;9.90;5.90;;;13.50;99.90;;;;;;4133438;28;20182;-80
2022/07/22 03:20:04;;;;;;;10.07;5.47;;;13.50;99.90;;;;;;4136091;28;20245;-80
2022/07/22 03:22:04;;;;;;;7.63;5.70;;;13.50;99.90;;;;;;4136016;28;20249;-79
2022/07/22 03:24:05;;;;;;;7.07;5.90;;;13.50;99.90;;;;;;4134322;28;20178;-80
2022/07/22 03:26:05;;;;;;;6.17;5.33;;;13.50;99.90;;;;;;4134772;28;20281;-79
2022/07/22 03:28:06;;;;;;;7.90;5.67;;;13.50;99.90;;;;;;4133154;28;20183;-78
2022/07/22 03:30:07;;;;;;;7.40;5.93;;;13.40;99.90;;;;;;4134145;28;20186;-79
2022/07/22 03:32:08;;;;;;;7.93;6.13;;;13.50;99.90;;;;;;4134553;28;20178;-79
2022/07/22 03:34:08;;;;;;;7.97;6.20;;;13.50;99.90;;;;;;4134055;28;20206;-78
2022/07/22 03:36:09;;;;;;;6.70;5.27;;;13.50;99.90;;;;;;4134393;28;20182;-77
2022/07/22 03:38:10;;;;;;;6.97;6.27;;;13.50;99.90;;;;;;4134431;28;20178;-79
2022/07/22 03:40:11;;;;;;;8.67;6.50;;;13.50;99.90;;;;;;4132829;28;20450;-78
2022/07/22 03:42:11;;;;;;;8.63;6.77;;;13.50;99.90;;;;;;4134637;28;20183;-78
2022/07/22 03:44:12;;;;;;;7.00;5.80;;;13.40;99.90;;;;;;4132027;28;20673;-78
2022/07/22 03:46:13;;;;;;;7.77;6.30;;;13.50;99.90;;;;;;4132807;28;20577;-76
2022/07/22 03:48:14;;;;;;;8.30;6.07;;;13.40;99.90;;;;;;4134212;28;20175;-78
2022/07/22 03:50:14;;;;;;;8.77;7.00;;;13.40;99.90;;;;;;4133718;28;20192;-78
2022/07/22 03:52:16;;;;;;;7.97;6.23;;;13.40;99.90;;;;;;4138698;28;20247;-75
2022/07/22 03:54:16;;;;;;;7.37;5.97;;;13.40;99.90;;;;;;4144804;28;20206;-76
2022/07/22 03:56:17;;;;;;;10.60;6.20;;;13.40;99.90;;;;;;4133978;28;20723;-77
2022/07/22 03:58:20;;;;;;;9.37;6.17;;;13.40;99.90;;;;;;4133990;28;20178;-77
2022/07/22 04:00:21;;;;;;;7.27;5.80;;;13.40;99.90;;;;;;4135061;28;20229;-78
2022/07/22 04:02:21;;;;;;;6.87;6.10;;;13.40;99.90;;;;;;4133978;28;20269;-77
2022/07/22 04:04:22;;;;;;;6.80;5.93;;;13.50;99.90;;;;;;4133002;28;20202;-78
2022/07/22 04:06:22;;;;;;;7.43;6.13;;;13.50;99.90;;;;;;4133028;28;20174;-77
2022/07/22 04:08:23;;;;;;;7.30;5.77;;;13.50;99.90;;;;;;4133281;28;20206;-78
2022/07/22 04:10:23;;;;;;;7.23;5.77;;;13.40;99.90;;;;;;4131743;28;20277;-75
2022/07/22 04:12:24;;;;;;;7.93;5.80;;;13.40;99.90;;;;;;4133397;28;20254;-77
2022/07/22 04:14:25;;;;;;;10.10;6.33;;;13.40;99.90;;;;;;4131199;28;20728;-77
2022/07/22 04:16:25;;;;;;;8.00;6.70;;;13.40;99.90;;;;;;4133625;28;20187;-78
2022/07/22 04:18:26;;;;;;;10.53;6.23;;;13.50;99.90;;;;;;4133225;28;20193;-76
2022/07/22 04:20:26;;;;;;;6.90;5.67;;;13.50;99.90;;;;;;4131392;28;20206;-77
2022/07/22 04:22:27;;;;;;;6.97;5.83;;;13.50;99.90;;;;;;4132705;28;20178;-77
2022/07/22 04:24:28;;;;;;;9.07;5.93;;;13.50;99.90;;;;;;4131667;28;20285;-76
2022/07/22 04:26:29;;;;;;;8.63;5.80;;;13.50;99.90;;;;;;4132004;28;20609;-76
2022/07/22 04:28:29;;;;;;;6.93;6.23;;;13.60;99.90;;;;;;4131157;28;20178;-77
2022/07/22 04:30:30;;;;;;;7.13;5.90;;;13.60;99.90;;;;;;4132021;28;20544;-77
2022/07/22 04:32:30;;;;;;;7.73;5.90;;;13.60;99.90;;;;;;4131974;28;20194;-77
2022/07/22 04:34:31;;;;;;;7.53;5.63;;;13.50;99.90;;;;;;4129779;28;20322;-77
2022/07/22 04:36:32;;;;;;;6.77;5.57;;;13.60;99.90;;;;;;4127720;28;20190;-76
2022/07/22 04:38:32;;;;;;;7.80;6.20;;;13.70;99.90;;;;;;4137684;28;20189;-76
2022/07/22 04:40:33;;;;;;;6.37;5.70;;;13.70;99.90;;;;;;4140929;28;20236;-77
2022/07/22 04:42:34;;;;;;;6.60;5.90;;;13.60;99.90;;;;;;4148116;28;20220;-77
2022/07/22 04:44:34;;;;;;;6.80;5.33;;;13.70;99.90;;;;;;4147288;28;20202;-77
2022/07/22 04:46:35;;;;;;;6.50;5.83;;;13.70;99.90;;;;;;4148284;28;20177;-77
2022/07/22 04:48:36;;;;;;;8.17;5.53;;;13.70;99.90;;;;;;4148347;28;20652;-77
2022/07/22 04:50:37;;;;;;;6.83;6.07;;;13.70;99.90;;;;;;4140616;28;20214;-77
2022/07/22 04:52:37;;;;;;;7.73;6.07;;;13.70;99.90;;;;;;4132009;28;20181;-76
2022/07/22 04:54:38;;;;;;;8.90;6.13;;;13.70;99.90;;;;;;4131284;28;20244;-77
2022/07/22 04:56:39;;;;;;;7.00;5.87;;;13.80;99.90;;;;;;4131689;28;20193;-77
2022/07/22 04:58:39;;;;;;;6.83;5.97;;;13.80;99.90;;;;;;4130258;28;20273;-77
2022/07/22 05:00:40;;;;;;;8.43;5.60;;;13.80;99.90;;;;;;4131515;28;20210;-77
2022/07/22 05:02:40;;;;;;;8.13;6.20;;;13.90;99.90;;;;;;4129904;28;20205;-77
2022/07/22 05:04:41;;;;;;;7.37;5.93;;;13.90;99.90;;;;;;4130753;28;20202;-77
2022/07/22 05:06:41;;;;;;;6.67;5.60;;;14.00;99.90;;;;;;4131265;28;20675;-77
2022/07/22 05:08:42;;;;;;;6.93;6.20;;;14.00;99.90;;;;;;4130071;28;21037;-77
2022/07/22 05:10:42;;;;;;;9.67;5.83;;;14.10;99.90;;;;;;4131165;28;20554;-77
2022/07/22 05:12:43;;;;;;;8.80;6.10;;;14.10;99.90;;;;;;4131313;28;20182;-76
2022/07/22 05:14:43;;;;;;;7.20;6.13;;;14.10;99.90;;;;;;4130955;28;20564;-77
2022/07/22 05:16:44;;;;;;;6.97;6.13;;;14.20;99.90;;;;;;4131651;28;20704;-77
2022/07/22 05:18:45;;;;;;;10.73;6.30;;;14.20;99.90;;;;;;4130064;28;20186;-77
2022/07/22 05:20:45;;;;;;;7.87;6.30;;;14.20;99.90;;;;;;4131187;28;20648;-76
2022/07/22 05:22:46;;;;;;;9.63;6.43;;;14.30;99.90;;;;;;4131353;28;20630;-79
2022/07/22 05:24:46;;;;;;;8.70;5.93;;;14.30;99.90;;;;;;4130706;28;20681;-77
2022/07/22 05:26:47;;;;;;;6.60;5.83;;;14.40;99.90;;;;;;4130007;28;20170;-77
2022/07/22 05:28:47;;;;;;;6.73;6.00;;;14.40;99.90;;;;;;4131241;28;20181;-74
2022/07/22 05:30:48;;;;;;;7.53;5.67;;;14.50;99.90;;;;;;4130199;28;20182;-77
2022/07/22 05:32:48;;;;;;;7.10;6.00;;;14.60;99.90;;;;;;4131266;28;20190;-77
2022/07/22 05:34:49;;;;;;;8.53;5.60;;;14.60;99.90;;;;;;4129253;28;20248;-77
2022/07/22 05:36:49;;;;;;;5.97;5.30;;;14.60;99.90;;;;;;4131303;28;20189;-76
2022/07/22 05:38:51;;;;;;;7.57;6.47;;;14.70;99.90;;;;;;4131252;28;20210;-76
2022/07/22 05:40:51;;;;;;;6.53;5.77;;;14.80;99.90;;;;;;4131072;28;20699;-76
2022/07/22 05:42:52;;;;;;;7.63;6.03;;;14.80;99.90;;;;;;4131096;28;20214;-76
2022/07/22 05:44:52;;;;;;;8.20;6.87;;;14.80;99.90;;;;;;4130075;28;20198;-76
2022/07/22 05:46:53;;;;;;;7.80;6.70;;;14.90;99.90;;;;;;4131147;28;20175;-77
2022/07/22 05:48:54;;;;;;;7.80;6.23;;;15.00;99.90;;;;;;4130953;28;20769;-76
2022/07/22 05:50:55;;;;;;;7.80;6.27;;;15.00;99.90;;;;;;4129567;28;20193;-77
2022/07/22 05:52:56;;;;;;;11.10;6.70;;;15.00;99.90;;;;;;4130749;28;20178;-77
2022/07/22 05:54:59;;;;;;;7.37;6.00;;;15.10;99.90;;;;;;4130754;28;20569;-75
2022/07/22 05:57:00;;;;;;;7.10;6.23;;;15.20;99.90;;;;;;4130847;28;20241;-76
2022/07/22 05:59:00;;;;;;;9.90;6.30;;;15.30;99.90;;;;;;4130862;28;20399;-75
2022/07/22 06:01:01;;;;;;;6.83;5.83;;;15.30;99.90;;;;;;4129577;28;20674;-76
2022/07/22 06:03:01;;;;;;;7.37;6.03;;;15.40;99.90;;;;;;4130815;28;20220;-78
2022/07/22 06:05:02;;;;;;;10.80;6.77;;;15.50;99.90;;;;;;4128807;28;20209;-76
2022/07/22 06:07:06;;;;;;;8.83;7.93;;;15.60;99.90;;;;;;4130493;28;20646;-76
2022/07/22 06:09:06;;;;;;;8.47;6.30;;;15.70;99.90;;;;;;4130632;28;20775;-76
2022/07/22 06:11:07;;;;;;;6.90;6.10;;;15.70;99.90;;;;;;4130498;28;20186;-76
2022/07/22 06:13:07;;;;;;;9.67;6.43;;;15.80;99.90;;;;;;4130586;28;20182;-76
2022/07/22 06:15:08;;;;;;;11.47;9.93;;;15.80;99.90;;;;;;4132043;28;20618;-76
2022/07/22 06:17:09;;;;;;;9.80;8.87;;;15.90;99.90;;;;;;4134116;28;20186;-75
2022/07/22 06:19:09;;;;;;;7.87;6.67;;;16.00;99.90;;;;;;4133761;28;20701;-76
2022/07/22 06:21:10;;;;;;;7.87;5.87;;;16.10;99.90;;;;;;4134124;28;20210;-76
2022/07/22 06:23:10;;;;;;;9.37;6.30;;;16.20;99.90;;;;;;4133818;28;20170;-76
2022/07/22 06:25:11;;;;;;;10.03;6.57;;;16.30;99.50;;;;;;4132113;28;20301;-76
2022/07/22 06:27:11;;;;;;;7.93;5.90;;;16.30;99.90;;;;;;4132678;28;20166;-76
2022/07/22 06:29:12;;;;;;;7.93;6.13;;;16.40;99.30;;;;;;4132598;28;20277;-76
2022/07/22 06:31:13;;;;;;;6.97;5.77;;;16.40;99.00;;;;;;4133911;28;20174;-77
2022/07/22 06:33:13;;;;;;;6.83;5.73;;;16.50;98.60;;;;;;4133692;28;20257;-76
2022/07/22 06:35:14;;;;;;;7.83;5.90;;;16.60;98.50;;;;;;4133250;28;20209;-75
2022/07/22 06:37:14;;;;;;;6.73;5.80;;;16.80;98.40;;;;;;4133849;28;20242;-75
2022/07/22 06:39:15;;;;;;;7.30;5.63;;;16.90;96.80;;;;;;4133454;28;20713;-76
2022/07/22 06:41:19;;;;;;;7.87;6.00;;;17.00;96.60;;;;;;4132300;28;20210;-76
2022/07/22 06:43:19;;;;;;;7.77;5.60;;;17.30;95.40;;;;;;4133656;28;20167;-76
2022/07/22 06:45:20;;;;;;;6.93;5.57;;;17.40;95.00;;;;;;4131386;28;20209;-76
2022/07/22 06:47:20;;;;;;;9.10;6.13;;;17.50;94.90;;;;;;4133544;28;20186;-75
2022/07/22 06:49:21;;;;;;;6.30;5.67;;;17.60;94.60;;;;;;4133344;28;20178;-76
2022/07/22 06:51:22;;;;;;;7.50;5.83;;;17.60;94.60;;;;;;4132030;28;20210;-76
2022/07/22 06:53:22;;;;;;;10.17;9.17;;;17.90;92.60;;;;;;4133491;28;20182;-75
2022/07/22 06:55:23;;;;;;;6.90;5.43;;;18.00;92.60;;;;;;4132549;28;20194;-76
2022/07/22 06:57:24;;;;;;;49.90;10.20;;;18.30;90.70;;;;;;4132149;28;20226;-76
2022/07/22 06:59:24;;;;;;;5.73;5.13;;;18.50;89.50;;;;;;4133150;28;20175;-76
2022/07/22 07:01:25;;;;;;;7.03;5.47;;;18.60;88.30;;;;;;4133276;28;20603;-75
2022/07/22 07:03:26;;;;;;;10.63;8.27;;;18.70;88.00;;;;;;4133089;28;20182;-75
2022/07/22 07:05:30;;;;;;;5.80;4.73;;;19.00;83.60;;;;;;4132524;28;20245;-76
2022/07/22 07:07:31;;;;;;;7.00;4.60;;;19.10;79.00;;;;;;4132010;28;20189;-75
2022/07/22 07:09:31;;;;;;;5.70;5.20;;;19.30;75.90;;;;;;4132946;28;20178;-76
2022/07/22 07:11:32;;;;;;;11.80;9.57;;;19.50;72.90;;;;;;4132837;28;20192;-76
2022/07/22 07:13:32;;;;;;;7.03;5.27;;;19.70;71.70;;;;;;4133078;28;20187;-75
2022/07/22 07:15:33;;;;;;;12.27;11.27;;;19.80;70.50;;;;;;4132492;28;20222;-76
2022/07/22 07:17:34;;;;;;;5.87;4.63;;;19.90;71.10;;;;;;4132954;28;20666;-76
2022/07/22 07:19:34;;;;;;;5.57;4.80;;;20.00;69.30;;;;;;4129983;28;20198;-75
2022/07/22 07:21:35;;;;;;;5.37;4.50;;;20.00;72.60;;;;;;4132820;28;20260;-76
2022/07/22 07:23:36;;;;;;;15.77;7.30;;;20.00;70.10;;;;;;4132939;28;20269;-76
2022/07/22 07:25:36;;;;;;;6.00;5.47;;;20.20;69.80;;;;;;4134545;28;20264;-76
2022/07/22 07:27:37;;;;;;;5.70;4.93;;;20.40;69.20;;;;;;4135719;28;20182;-76
2022/07/22 07:29:37;;;;;;;6.20;5.60;;;20.50;68.50;;;;;;4132968;28;20241;-76
2022/07/22 07:31:38;;;;;;;6.20;4.70;;;20.60;67.50;;;;;;4132900;28;20186;-75
2022/07/22 07:33:38;;;;;;;7.83;6.50;;;20.80;65.60;;;;;;4132989;28;20193;-76
2022/07/22 07:35:39;;;;;;;6.50;5.80;;;20.90;65.50;;;;;;4132115;28;20313;-75
2022/07/22 07:37:40;;;;;;;6.17;4.97;;;21.00;63.90;;;;;;4132817;28;20186;-75
2022/07/22 07:39:40;;;;;;;22.30;20.63;;;21.10;64.00;;;;;;4132685;28;20232;-76
2022/07/22 07:41:41;;;;;;;14.20;12.87;;;21.20;63.30;;;;;;4132629;28;20233;-76
2022/07/22 07:43:41;;;;;;;6.53;5.43;;;21.10;63.10;;;;;;4132467;28;20950;-76
2022/07/22 07:45:42;;;;;;;7.77;6.70;;;21.20;62.80;;;;;;4131895;28;20716;-76
2022/07/22 07:47:43;;;;;;;7.23;5.83;;;21.30;63.90;;;;;;4132696;28;20268;-75
2022/07/22 07:49:45;;;;;;;7.23;6.03;;;21.30;61.80;;;;;;4132406;28;20182;-75
2022/07/22 07:51:45;;;;;;;6.83;6.23;;;21.30;62.10;;;;;;4132748;28;20198;-76
2022/07/22 07:53:46;;;;;;;19.10;17.13;;;21.50;61.30;;;;;;4132086;28;20321;-76
2022/07/22 07:55:47;;;;;;;6.93;6.23;;;21.60;60.50;;;;;;4130818;28;20208;-76
2022/07/22 07:57:51;;;;;;;12.13;9.10;;;21.70;60.60;;;;;;4132940;28;20178;-76
2022/07/22 07:59:52;;;;;;;6.37;5.33;;;21.70;60.10;;;;;;4132488;28;20214;-76
2022/07/22 08:01:52;;;;;;;7.50;6.80;;;21.80;60.90;;;;;;4132476;28;20175;-76
2022/07/22 08:03:53;;;;;;;6.70;5.33;;;21.90;59.40;;;;;;4130706;28;20178;-76
2022/07/22 08:05:53;;;;;;;7.50;5.17;;;22.10;61.80;;;;;;4132318;28;20552;-76
2022/07/22 08:07:54;;;;;;;11.47;9.20;;;22.30;58.70;;;;;;4131213;28;20197;-76
2022/07/22 08:09:55;;;;;;;8.90;7.93;;;22.60;58.00;;;;;;4132460;28;20182;-76
2022/07/22 08:11:55;;;;;;;6.40;5.80;;;22.50;57.60;;;;;;4132134;28;20182;-77
2022/07/22 08:13:56;;;;;;;59.40;15.07;;;22.40;57.90;;;;;;4131666;28;20572;-78
2022/07/22 08:15:57;;;;;;;12.70;11.60;;;22.30;58.40;;;;;;4130714;28;20244;-76
2022/07/22 08:17:58;;;;;;;8.97;8.07;;;22.20;58.80;;;;;;4132356;28;20716;-78
2022/07/22 08:19:58;;;;;;;7.23;6.37;;;22.30;59.10;;;;;;4130736;28;20233;-77
2022/07/22 08:21:59;;;;;;;19.97;17.90;;;22.30;58.90;;;;;;4132271;28;20178;-78
2022/07/22 08:24:00;;;;;;;6.27;5.67;;;22.40;59.20;;;;;;4130477;28;20760;-77
2022/07/22 08:26:01;;;;;;;7.40;5.67;;;22.80;57.90;;;;;;4131104;28;20697;-78
2022/07/22 08:28:01;;;;;;;15.07;11.53;;;22.90;56.50;;;;;;4132596;28;20702;-78
2022/07/22 08:30:05;;;;;;;78.70;54.70;;;23.10;56.10;;;;;;4132410;28;20174;-77
2022/07/22 08:32:06;;;;;;;6.93;6.27;;;23.20;55.50;;;;;;4132945;28;20204;-79
2022/07/22 08:34:06;;;;;;;8.17;7.33;;;23.20;56.50;;;;;;4132191;28;20217;-79
2022/07/22 08:36:07;;;;;;;18.57;16.87;;;23.30;53.50;;;;;;4127664;28;20170;-77
2022/07/22 08:38:08;;;;;;;13.03;11.90;;;23.30;53.50;;;;;;4133858;28;20273;-75
2022/07/22 08:40:10;;;;;;;46.20;33.30;;;22.90;54.30;;;;;;4126430;28;20250;-77
2022/07/22 08:42:11;;;;;;;7.73;7.03;;;23.00;53.90;;;;;;4128043;28;20252;-77
2022/07/22 08:44:11;;;;;;;7.80;6.90;;;23.10;53.50;;;;;;4125864;28;20214;-77
2022/07/22 08:46:12;;;;;;;11.23;10.03;;;23.30;52.90;;;;;;4127858;28;20189;-81
2022/07/22 08:48:13;;;;;;;15.87;14.43;;;23.30;53.50;;;;;;4129211;28;20664;-77
2022/07/22 08:50:14;;;;;;;7.40;6.73;;;23.30;52.20;;;;;;4134437;28;20210;-78
2022/07/22 08:52:15;;;;;;;10.77;9.87;;;23.40;52.40;;;;;;4138279;28;20186;-80
2022/07/22 08:54:15;;;;;;;18.50;17.03;;;23.60;51.90;;;;;;4130499;28;20236;-79
2022/07/22 08:56:16;;;;;;;26.10;9.03;;;23.40;50.90;;;;;;4130202;28;20190;-76
2022/07/22 08:58:17;;;;;;;7.53;6.47;;;23.30;51.30;;;;;;4123870;28;21752;-75
2022/07/22 09:00:20;;;;;;;6.53;5.63;;;23.70;52.90;;;;;;4126365;28;20202;-72
2022/07/22 09:02:23;;;;;;;8.40;7.60;;;24.10;51.10;;;;;;4129360;28;20201;-78
2022/07/22 09:04:23;;;;;;;5.90;5.30;;;24.30;49.60;;;;;;4126620;28;20225;-76
2022/07/22 09:06:26;;;;;;;6.50;5.87;;;24.30;49.90;;;;;;4128613;28;20186;-80
2022/07/22 09:08:27;;;;;;;9.30;6.10;;;24.60;50.40;;;;;;4126577;28;20187;-77
2022/07/22 09:10:33;;;;;;;10.17;9.37;;;24.60;49.30;;;;;;4132691;28;20225;-80
2022/07/22 09:12:34;;;;;;;8.93;8.23;;;24.70;48.40;;;;;;4140512;28;20182;-79
2022/07/22 09:14:52;;;;;;;7.07;6.33;;;24.90;49.70;;;;;;4139667;28;20249;-80
2022/07/22 09:16:54;;;;;;;10.40;9.40;;;25.00;47.40;;;;;;4131199;28;20198;-77
2022/07/22 09:18:54;;;;;;;28.03;25.23;;;25.00;47.60;;;;;;4135319;28;20320;-79
2022/07/22 09:20:59;;;;;;;7.87;6.47;;;24.60;48.60;;;;;;4138951;28;20202;-82
2022/07/22 09:23:00;;;;;;;10.40;9.40;;;24.60;48.80;;;;;;4136959;28;20185;-79
2022/07/22 09:25:22;;;;;;;7.10;6.30;;;24.90;47.90;;;;;;4138275;28;20218;-79
2022/07/22 09:27:27;;;;;;;7.83;6.67;;;25.30;46.30;;;;;;4119935;28;20183;-77
2022/07/22 09:29:27;;;;;;;19.37;18.03;;;25.20;45.10;;;;;;4131393;28;20182;-77
2022/07/22 09:31:31;;;;;;;5.93;5.40;;;25.30;44.90;;;;;;4133451;28;20186;-79
2022/07/22 09:33:32;;;;;;;6.00;5.40;;;25.50;44.20;;;;;;4131068;28;20190;-77
2022/07/22 09:35:33;;;;;;;7.67;7.00;;;25.90;44.50;;;;;;4130987;28;20320;-79
2022/07/22 09:37:33;;;;;;;11.67;10.63;;;25.90;42.40;;;;;;4132551;28;20244;-78
2022/07/22 09:39:35;;;;;;;5.93;5.33;;;26.00;42.40;;;;;;4132894;28;20186;-78
2022/07/22 09:41:40;;;;;;;8.00;6.60;;;25.80;42.10;;;;;;4132361;28;20302;-78
2022/07/22 09:43:41;;;;;;;6.10;5.47;;;26.00;41.60;;;;;;4130605;28;20286;-76
2022/07/22 09:45:48;;;;;;;11.67;10.57;;;25.90;42.00;;;;;;4129618;28;20202;-78
2022/07/22 09:47:49;;;;;;;6.93;4.97;;;26.10;41.20;;;;;;4135754;28;20174;-78
2022/07/22 09:49:49;;;;;;;5.40;4.90;;;25.90;41.30;;;;;;4134786;28;20228;-78
2022/07/22 09:51:51;;;;;;;18.80;17.47;;;26.30;42.00;;;;;;4134415;28;20178;-75
2022/07/22 09:53:52;;;;;;;8.37;7.67;;;26.40;40.60;;;;;;4129281;28;20185;-76
2022/07/22 09:55:53;;;;;;;6.07;5.47;;;25.90;40.90;;;;;;4130649;28;20675;-76
2022/07/22 09:57:56;;;;;;;6.23;5.67;;;25.80;40.80;;;;;;4129059;28;20272;-78
2022/07/22 09:59:56;;;;;;;7.03;6.30;;;26.20;40.60;;;;;;4130914;28;20182;-78
2022/07/22 10:01:58;;;;;;;7.90;5.97;;;26.40;40.70;;;;;;4131063;28;20189;-77
2022/07/22 10:04:00;;;;;;;5.97;5.23;;;26.30;41.10;;;;;;4128619;28;20250;-79
2022/07/22 10:06:02;;;;;;;10.30;9.50;;;26.50;40.60;;;;;;4130143;28;20218;-77
2022/07/22 10:08:05;;;;;;;5.80;4.80;;;26.90;38.40;;;;;;4128577;28;20233;-76
2022/07/22 10:10:07;;;;;;;6.50;4.83;;;27.00;38.40;;;;;;4130445;28;20175;-76
2022/07/22 10:12:08;;;;;;;7.60;7.00;;;27.20;37.80;;;;;;4131074;28;20557;-75
2022/07/22 10:14:09;;;;;;;9.93;9.13;;;27.20;36.80;;;;;;4129731;28;20185;-74
2022/07/22 10:16:11;;;;;;;6.87;6.37;;;27.50;37.30;;;;;;4129952;28;20273;-73
2022/07/22 10:18:16;;;;;;;8.87;8.20;;;27.60;37.50;;;;;;4128075;28;20194;-82
2022/07/22 10:20:23;;;;;;;12.17;11.07;;;27.50;35.10;;;;;;4132765;28;20206;-76
2022/07/22 10:22:38;;;;;;;5.23;4.60;;;27.50;35.20;;;;;;4134325;28;20202;-78
2022/07/22 10:25:00;;;;;;;5.53;4.60;;;27.80;34.50;;;;;;4128665;28;20985;-77
2022/07/22 10:27:01;;;;;;;5.13;4.63;;;28.30;33.80;;;;;;4129923;28;20210;-76
2022/07/22 10:29:26;;;;;;;7.03;6.43;;;28.50;33.10;;;;;;4129005;28;20241;-76